Palmyra, New York
Current Conditions -  °F | °C
As of 10:37 PM on Saturday 24 Jan 2015 (Local Time) from KROC Reporting Station
Light Snow Light Snow  
Wind Chill: 22°   Ceiling: 1300
Heat Index: 32°   Visibility: 5mi
Dew Point: 29°   Wind: 14mph
Humidity: 88%   Direction: 260°W
Pressure: 29.48"   Gusts: NA
Location:  43.06°N, 77.23°W
Report Text: KROC 250337Z 26012KT 5SM -SN BR OVC013 00/M02 A2948 RMK AO2 P0000 T00001017
Loading
Personal Weather Stations






























Interactive Weather Map New forecast layout! Learn more

10-Day Weather Forecast

Advertisements
Track Severe Weather on mobile